Sandy Cape, Australia
Current Conditions -  °F | °C
As of 9:00 AM on Saturday 20 Dec 2014 (Local Time) from YBUD Reporting Station
Scattered Clouds Scattered Clouds  
Wind Chill: 82°   Ceiling: Unl
Heat Index: 85°   Visibility: 6mi
Dew Point: 68°   Wind: 14mph
Humidity: 62%   Direction: 120°ESE
Pressure: 29.94"   Gusts: NA
Location:  24.72°S, 153.2°E
Report Text: YBUD 192300Z AUTO 12012KT 9999 // SCT026 28/20 Q1014
Loading
Personal Weather Stations






























Interactive Weather Map New forecast layout! Learn more

10-Day Weather Forecast

Advertisements
Track Severe Weather on mobile